<?xml version="1.0" encoding="utf-8"?>
<gpx xmlns:xsi="http://www.w3.org/2001/XMLSchema-instance" xmlns:xsd="http://www.w3.org/2001/XMLSchema" version="1.1" creator="Shapelink.com" xmlns="http://www.topografix.com/GPX/1/1" xmlns:gpxtpx="http://www.garmin.com/xmlschemas/TrackPointExtension/v1">
  <metadata>
    <name>Cycling 10.34 km, 2020-06-22</name>
    <desc></desc>
    <author><name>Marian Moron</name></author> 
    <time>2020-06-22T19:20:27Z</time>
  </metadata>
  <trk>
    <name>Cycling 10.34 km, 2020-06-22</name>
    <trkseg>
      <trkpt lat="51.228618292826" lon="4.449095337105">
        <ele>10.8</ele>
        <time>2020-06-22T19:20:27Z</time>
      </trkpt>
      <trkpt lat="51.228883412323" lon="4.448781015855">
        <ele>10.6</ele>
        <time>2020-06-22T19:21:02Z</time>
      </trkpt>
      <trkpt lat="51.229021713673" lon="4.448468957718">
        <ele>10.2</ele>
        <time>2020-06-22T19:21:16Z</time>
      </trkpt>
      <trkpt lat="51.228672858995" lon="4.447759094607">
        <ele>10.2</ele>
        <time>2020-06-22T19:21:38Z</time>
      </trkpt>
      <trkpt lat="51.228381252694" lon="4.447183425715">
        <ele>11.4</ele>
        <time>2020-06-22T19:21:53Z</time>
      </trkpt>
      <trkpt lat="51.228399022322" lon="4.447135816523">
        <ele>11.2</ele>
        <time>2020-06-22T19:21:55Z</time>
      </trkpt>
      <trkpt lat="51.228402291263" lon="4.447201027705">
        <ele>10.8</ele>
        <time>2020-06-22T19:21:58Z</time>
      </trkpt>
      <trkpt lat="51.228374463355" lon="4.447173618892">
        <ele>10.4</ele>
        <time>2020-06-22T19:22:01Z</time>
      </trkpt>
      <trkpt lat="51.228402794177" lon="4.447165907544">
        <ele>10.2</ele>
        <time>2020-06-22T19:22:04Z</time>
      </trkpt>
      <trkpt lat="51.228181009103" lon="4.447201195343">
        <ele>8.4</ele>
        <time>2020-06-22T19:22:21Z</time>
      </trkpt>
      <trkpt lat="51.227754370393" lon="4.447771499819">
        <ele>6.2</ele>
        <time>2020-06-22T19:22:46Z</time>
      </trkpt>
      <trkpt lat="51.227331084443" lon="4.448372230592">
        <ele>3.4</ele>
        <time>2020-06-22T19:23:06Z</time>
      </trkpt>
      <trkpt lat="51.226982984136" lon="4.449045716257">
        <ele>3.8</ele>
        <time>2020-06-22T19:23:26Z</time>
      </trkpt>
      <trkpt lat="51.226917437678" lon="4.449121823909">
        <ele>4.2</ele>
        <time>2020-06-22T19:23:29Z</time>
      </trkpt>
      <trkpt lat="51.226605798636" lon="4.449425583965">
        <ele>3.4</ele>
        <time>2020-06-22T19:23:42Z</time>
      </trkpt>
      <trkpt lat="51.226260883451" lon="4.44884094644">
        <ele>0.2</ele>
        <time>2020-06-22T19:24:04Z</time>
      </trkpt>
      <trkpt lat="51.22589635462" lon="4.449517617227">
        <ele>0</ele>
        <time>2020-06-22T19:24:22Z</time>
      </trkpt>
      <trkpt lat="51.225362930504" lon="4.449712244945">
        <ele>0</ele>
        <time>2020-06-22T19:24:41Z</time>
      </trkpt>
      <trkpt lat="51.22486789549" lon="4.450074343025">
        <ele>0</ele>
        <time>2020-06-22T19:24:57Z</time>
      </trkpt>
      <trkpt lat="51.224487273411" lon="4.450686976096">
        <ele>0</ele>
        <time>2020-06-22T19:25:09Z</time>
      </trkpt>
      <trkpt lat="51.224062813995" lon="4.451276978037">
        <ele>0</ele>
        <time>2020-06-22T19:25:24Z</time>
      </trkpt>
      <trkpt lat="51.223516900848" lon="4.451268009404">
        <ele>0</ele>
        <time>2020-06-22T19:25:40Z</time>
      </trkpt>
      <trkpt lat="51.222982303266" lon="4.451116716109">
        <ele>0</ele>
        <time>2020-06-22T19:25:55Z</time>
      </trkpt>
      <trkpt lat="51.222441419259" lon="4.451102718336">
        <ele>0</ele>
        <time>2020-06-22T19:26:12Z</time>
      </trkpt>
      <trkpt lat="51.221918723975" lon="4.451340512839">
        <ele>0</ele>
        <time>2020-06-22T19:26:28Z</time>
      </trkpt>
      <trkpt lat="51.221395358139" lon="4.451561878818">
        <ele>0</ele>
        <time>2020-06-22T19:26:47Z</time>
      </trkpt>
      <trkpt lat="51.220842152739" lon="4.451647038922">
        <ele>0</ele>
        <time>2020-06-22T19:27:06Z</time>
      </trkpt>
      <trkpt lat="51.220279140516" lon="4.451809228687">
        <ele>0</ele>
        <time>2020-06-22T19:27:22Z</time>
      </trkpt>
      <trkpt lat="51.219739094699" lon="4.45197158609">
        <ele>0</ele>
        <time>2020-06-22T19:27:39Z</time>
      </trkpt>
      <trkpt lat="51.219179267598" lon="4.452088429776">
        <ele>0</ele>
        <time>2020-06-22T19:27:55Z</time>
      </trkpt>
      <trkpt lat="51.219099555729" lon="4.452079209686">
        <ele>0</ele>
        <time>2020-06-22T19:27:56Z</time>
      </trkpt>
      <trkpt lat="51.219061501903" lon="4.452050459769">
        <ele>0</ele>
        <time>2020-06-22T19:27:58Z</time>
      </trkpt>
      <trkpt lat="51.218994865798" lon="4.45195063134">
        <ele>0</ele>
        <time>2020-06-22T19:28:00Z</time>
      </trkpt>
      <trkpt lat="51.218888499487" lon="4.451779975856">
        <ele>0</ele>
        <time>2020-06-22T19:28:03Z</time>
      </trkpt>
      <trkpt lat="51.218747935024" lon="4.451682913454">
        <ele>0</ele>
        <time>2020-06-22T19:28:06Z</time>
      </trkpt>
      <trkpt lat="51.218509302331" lon="4.451643518524">
        <ele>0</ele>
        <time>2020-06-22T19:28:11Z</time>
      </trkpt>
      <trkpt lat="51.218254827847" lon="4.452338797129">
        <ele>0</ele>
        <time>2020-06-22T19:28:29Z</time>
      </trkpt>
      <trkpt lat="51.218223898636" lon="4.4531945053">
        <ele>0.2</ele>
        <time>2020-06-22T19:28:46Z</time>
      </trkpt>
      <trkpt lat="51.218160782929" lon="4.454054655878">
        <ele>1.8</ele>
        <time>2020-06-22T19:29:03Z</time>
      </trkpt>
      <trkpt lat="51.218130440451" lon="4.454957302689">
        <ele>1.8</ele>
        <time>2020-06-22T19:29:20Z</time>
      </trkpt>
      <trkpt lat="51.218092135168" lon="4.455830026117">
        <ele>5</ele>
        <time>2020-06-22T19:29:37Z</time>
      </trkpt>
      <trkpt lat="51.218079981413" lon="4.456730409815">
        <ele>6.8</ele>
        <time>2020-06-22T19:29:52Z</time>
      </trkpt>
      <trkpt lat="51.217841600177" lon="4.457516715854">
        <ele>10</ele>
        <time>2020-06-22T19:30:15Z</time>
      </trkpt>
      <trkpt lat="51.217472880396" lon="4.458221633644">
        <ele>3.2</ele>
        <time>2020-06-22T19:30:32Z</time>
      </trkpt>
      <trkpt lat="51.217147578857" lon="4.458924288321">
        <ele>0</ele>
        <time>2020-06-22T19:30:49Z</time>
      </trkpt>
      <trkpt lat="51.216836442729" lon="4.459660219141">
        <ele>0</ele>
        <time>2020-06-22T19:31:07Z</time>
      </trkpt>
      <trkpt lat="51.216492617191" lon="4.460359101963">
        <ele>0</ele>
        <time>2020-06-22T19:31:25Z</time>
      </trkpt>
      <trkpt lat="51.21617921795" lon="4.461061672821">
        <ele>0</ele>
        <time>2020-06-22T19:31:45Z</time>
      </trkpt>
      <trkpt lat="51.215825753227" lon="4.461705151284">
        <ele>0</ele>
        <time>2020-06-22T19:32:14Z</time>
      </trkpt>
      <trkpt lat="51.21581795806" lon="4.461807242826">
        <ele>0</ele>
        <time>2020-06-22T19:33:28Z</time>
      </trkpt>
      <trkpt lat="51.215729612834" lon="4.461948813117">
        <ele>0</ele>
        <time>2020-06-22T19:33:36Z</time>
      </trkpt>
      <trkpt lat="51.215748555928" lon="4.461970270781">
        <ele>0</ele>
        <time>2020-06-22T19:33:41Z</time>
      </trkpt>
      <trkpt lat="51.215736737449" lon="4.461937916647">
        <ele>0</ele>
        <time>2020-06-22T19:33:47Z</time>
      </trkpt>
      <trkpt lat="51.215454602695" lon="4.462645600464">
        <ele>0</ele>
        <time>2020-06-22T19:34:08Z</time>
      </trkpt>
      <trkpt lat="51.21551788604" lon="4.462746267083">
        <ele>0</ele>
        <time>2020-06-22T19:34:14Z</time>
      </trkpt>
      <trkpt lat="51.215537583505" lon="4.462791361705">
        <ele>0</ele>
        <time>2020-06-22T19:34:47Z</time>
      </trkpt>
      <trkpt lat="51.215536158582" lon="4.46283201392">
        <ele>0</ele>
        <time>2020-06-22T19:34:49Z</time>
      </trkpt>
      <trkpt lat="51.216015519443" lon="4.463169469214">
        <ele>0</ele>
        <time>2020-06-22T19:35:14Z</time>
      </trkpt>
      <trkpt lat="51.216559253296" lon="4.463174749811">
        <ele>0</ele>
        <time>2020-06-22T19:35:33Z</time>
      </trkpt>
      <trkpt lat="51.217117823112" lon="4.463135271062">
        <ele>0</ele>
        <time>2020-06-22T19:35:52Z</time>
      </trkpt>
      <trkpt lat="51.217670944693" lon="4.463145413161">
        <ele>0</ele>
        <time>2020-06-22T19:36:09Z</time>
      </trkpt>
      <trkpt lat="51.217762977955" lon="4.463178018752">
        <ele>0</ele>
        <time>2020-06-22T19:36:13Z</time>
      </trkpt>
      <trkpt lat="51.217725427043" lon="4.464072451301">
        <ele>0</ele>
        <time>2020-06-22T19:36:31Z</time>
      </trkpt>
      <trkpt lat="51.217707573596" lon="4.464939642675">
        <ele>3.4</ele>
        <time>2020-06-22T19:36:47Z</time>
      </trkpt>
      <trkpt lat="51.21769131271" lon="4.465782610358">
        <ele>0.8</ele>
        <time>2020-06-22T19:37:03Z</time>
      </trkpt>
      <trkpt lat="51.21764437407" lon="4.466643096212">
        <ele>0</ele>
        <time>2020-06-22T19:37:18Z</time>
      </trkpt>
      <trkpt lat="51.217572205911" lon="4.467495619261">
        <ele>2.4</ele>
        <time>2020-06-22T19:37:36Z</time>
      </trkpt>
      <trkpt lat="51.217480507925" lon="4.468321739325">
        <ele>1.4</ele>
        <time>2020-06-22T19:37:53Z</time>
      </trkpt>
      <trkpt lat="51.217061664382" lon="4.467749255555">
        <ele>0</ele>
        <time>2020-06-22T19:38:13Z</time>
      </trkpt>
      <trkpt lat="51.216560678219" lon="4.467669627505">
        <ele>0</ele>
        <time>2020-06-22T19:38:32Z</time>
      </trkpt>
      <trkpt lat="51.21601325633" lon="4.467702652191">
        <ele>0</ele>
        <time>2020-06-22T19:38:50Z</time>
      </trkpt>
      <trkpt lat="51.215582594308" lon="4.468198525395">
        <ele>0</ele>
        <time>2020-06-22T19:39:13Z</time>
      </trkpt>
      <trkpt lat="51.215537332048" lon="4.468199615042">
        <ele>0</ele>
        <time>2020-06-22T19:39:14Z</time>
      </trkpt>
      <trkpt lat="51.214983875191" lon="4.468189137667">
        <ele>0</ele>
        <time>2020-06-22T19:39:34Z</time>
      </trkpt>
      <trkpt lat="51.214626303337" lon="4.468720633946">
        <ele>0</ele>
        <time>2020-06-22T19:39:54Z</time>
      </trkpt>
      <trkpt lat="51.214441314804" lon="4.469496630248">
        <ele>0</ele>
        <time>2020-06-22T19:40:11Z</time>
      </trkpt>
      <trkpt lat="51.214198407342" lon="4.47027849388">
        <ele>0</ele>
        <time>2020-06-22T19:40:29Z</time>
      </trkpt>
      <trkpt lat="51.214342995117" lon="4.471083407737">
        <ele>0</ele>
        <time>2020-06-22T19:40:44Z</time>
      </trkpt>
      <trkpt lat="51.214325309308" lon="4.47190793524">
        <ele>1.2</ele>
        <time>2020-06-22T19:41:04Z</time>
      </trkpt>
      <trkpt lat="51.214412900163" lon="4.47275953628">
        <ele>0</ele>
        <time>2020-06-22T19:41:22Z</time>
      </trkpt>
      <trkpt lat="51.214437375311" lon="4.473606191999">
        <ele>0</ele>
        <time>2020-06-22T19:41:41Z</time>
      </trkpt>
      <trkpt lat="51.214005623642" lon="4.473769136135">
        <ele>0</ele>
        <time>2020-06-22T19:42:01Z</time>
      </trkpt>
      <trkpt lat="51.213993469887" lon="4.473619351582">
        <ele>0</ele>
        <time>2020-06-22T19:42:05Z</time>
      </trkpt>
      <trkpt lat="51.213665234683" lon="4.473629242224">
        <ele>0</ele>
        <time>2020-06-22T19:42:22Z</time>
      </trkpt>
      <trkpt lat="51.213585438995" lon="4.472762805221">
        <ele>0</ele>
        <time>2020-06-22T19:42:50Z</time>
      </trkpt>
      <trkpt lat="51.213371197631" lon="4.471958981011">
        <ele>0</ele>
        <time>2020-06-22T19:43:07Z</time>
      </trkpt>
      <trkpt lat="51.213493154276" lon="4.471112828206">
        <ele>0</ele>
        <time>2020-06-22T19:43:25Z</time>
      </trkpt>
      <trkpt lat="51.2133503267" lon="4.470283439201">
        <ele>0</ele>
        <time>2020-06-22T19:43:44Z</time>
      </trkpt>
      <trkpt lat="51.213245469131" lon="4.469414822904">
        <ele>0</ele>
        <time>2020-06-22T19:44:01Z</time>
      </trkpt>
      <trkpt lat="51.212970039897" lon="4.468694901513">
        <ele>0</ele>
        <time>2020-06-22T19:44:17Z</time>
      </trkpt>
      <trkpt lat="51.212805670838" lon="4.467892334588">
        <ele>0</ele>
        <time>2020-06-22T19:44:36Z</time>
      </trkpt>
      <trkpt lat="51.212491265769" lon="4.467265117011">
        <ele>0</ele>
        <time>2020-06-22T19:44:52Z</time>
      </trkpt>
      <trkpt lat="51.212244251176" lon="4.4665301082">
        <ele>0</ele>
        <time>2020-06-22T19:45:11Z</time>
      </trkpt>
      <trkpt lat="51.212118606495" lon="4.465704155774">
        <ele>0</ele>
        <time>2020-06-22T19:45:30Z</time>
      </trkpt>
      <trkpt lat="51.211583673637" lon="4.46559468816">
        <ele>0</ele>
        <time>2020-06-22T19:45:48Z</time>
      </trkpt>
      <trkpt lat="51.211569005312" lon="4.465605416992">
        <ele>0</ele>
        <time>2020-06-22T19:45:49Z</time>
      </trkpt>
      <trkpt lat="51.211483845208" lon="4.465846312798">
        <ele>0</ele>
        <time>2020-06-22T19:46:00Z</time>
      </trkpt>
      <trkpt lat="51.211541680318" lon="4.466741751175">
        <ele>0</ele>
        <time>2020-06-22T19:46:17Z</time>
      </trkpt>
      <trkpt lat="51.211513517134" lon="4.467642973063">
        <ele>0</ele>
        <time>2020-06-22T19:46:32Z</time>
      </trkpt>
      <trkpt lat="51.211439588776" lon="4.468522066735">
        <ele>0</ele>
        <time>2020-06-22T19:46:50Z</time>
      </trkpt>
      <trkpt lat="51.211389884109" lon="4.469391772679">
        <ele>0</ele>
        <time>2020-06-22T19:47:08Z</time>
      </trkpt>
      <trkpt lat="51.211560958688" lon="4.470217473648">
        <ele>0</ele>
        <time>2020-06-22T19:47:25Z</time>
      </trkpt>
      <trkpt lat="51.211791377119" lon="4.470996738891">
        <ele>0</ele>
        <time>2020-06-22T19:47:42Z</time>
      </trkpt>
      <trkpt lat="51.212113661174" lon="4.471688664736">
        <ele>0</ele>
        <time>2020-06-22T19:47:59Z</time>
      </trkpt>
      <trkpt lat="51.212508197207" lon="4.472489303824">
        <ele>0</ele>
        <time>2020-06-22T19:48:18Z</time>
      </trkpt>
      <trkpt lat="51.212825200665" lon="4.473222803893">
        <ele>0</ele>
        <time>2020-06-22T19:48:34Z</time>
      </trkpt>
      <trkpt lat="51.213116890785" lon="4.473950939546">
        <ele>0</ele>
        <time>2020-06-22T19:48:52Z</time>
      </trkpt>
      <trkpt lat="51.213327444113" lon="4.474728276952">
        <ele>0</ele>
        <time>2020-06-22T19:49:08Z</time>
      </trkpt>
      <trkpt lat="51.213465494006" lon="4.47556914916">
        <ele>0</ele>
        <time>2020-06-22T19:49:26Z</time>
      </trkpt>
      <trkpt lat="51.213600694053" lon="4.476425946978">
        <ele>0</ele>
        <time>2020-06-22T19:49:42Z</time>
      </trkpt>
      <trkpt lat="51.213790963183" lon="4.477252318499">
        <ele>0</ele>
        <time>2020-06-22T19:49:59Z</time>
      </trkpt>
      <trkpt lat="51.214158593317" lon="4.477887666519">
        <ele>0</ele>
        <time>2020-06-22T19:50:18Z</time>
      </trkpt>
      <trkpt lat="51.214592440461" lon="4.47842318611">
        <ele>0</ele>
        <time>2020-06-22T19:50:34Z</time>
      </trkpt>
      <trkpt lat="51.214841550529" lon="4.478630135221">
        <ele>0</ele>
        <time>2020-06-22T19:50:43Z</time>
      </trkpt>
      <trkpt lat="51.215358294664" lon="4.478864660783">
        <ele>0</ele>
        <time>2020-06-22T19:50:59Z</time>
      </trkpt>
      <trkpt lat="51.215767918117" lon="4.478336433445">
        <ele>3</ele>
        <time>2020-06-22T19:51:16Z</time>
      </trkpt>
      <trkpt lat="51.216140158296" lon="4.477715921388">
        <ele>2.2</ele>
        <time>2020-06-22T19:51:34Z</time>
      </trkpt>
      <trkpt lat="51.216698225198" lon="4.477602933376">
        <ele>0</ele>
        <time>2020-06-22T19:51:51Z</time>
      </trkpt>
      <trkpt lat="51.217138526405" lon="4.477889091442">
        <ele>0</ele>
        <time>2020-06-22T19:52:10Z</time>
      </trkpt>
      <trkpt lat="51.217096030172" lon="4.478784278362">
        <ele>0</ele>
        <time>2020-06-22T19:52:30Z</time>
      </trkpt>
      <trkpt lat="51.217063843676" lon="4.479669323183">
        <ele>0</ele>
        <time>2020-06-22T19:52:49Z</time>
      </trkpt>
      <trkpt lat="51.217005254195" lon="4.480531485417">
        <ele>0.8</ele>
        <time>2020-06-22T19:53:10Z</time>
      </trkpt>
      <trkpt lat="51.216967619464" lon="4.481394150565">
        <ele>0</ele>
        <time>2020-06-22T19:53:28Z</time>
      </trkpt>
      <trkpt lat="51.21699477682" lon="4.481779969422">
        <ele>0.4</ele>
        <time>2020-06-22T19:53:38Z</time>
      </trkpt>
      <trkpt lat="51.217517388285" lon="4.481635046371">
        <ele>1.2</ele>
        <time>2020-06-22T19:54:01Z</time>
      </trkpt>
      <trkpt lat="51.218037652818" lon="4.481372022349">
        <ele>0</ele>
        <time>2020-06-22T19:54:22Z</time>
      </trkpt>
      <trkpt lat="51.218561773025" lon="4.481099778237">
        <ele>1.2</ele>
        <time>2020-06-22T19:54:43Z</time>
      </trkpt>
      <trkpt lat="51.219077008418" lon="4.480849075608">
        <ele>0.2</ele>
        <time>2020-06-22T19:55:08Z</time>
      </trkpt>
      <trkpt lat="51.219391664944" lon="4.480609520906">
        <ele>2.2</ele>
        <time>2020-06-22T19:55:28Z</time>
      </trkpt>
      <trkpt lat="51.219409183115" lon="4.4805781726">
        <ele>4</ele>
        <time>2020-06-22T19:55:54Z</time>
      </trkpt>
      <trkpt lat="51.219420247223" lon="4.480575071297">
        <ele>4.2</ele>
        <time>2020-06-22T19:55:55Z</time>
      </trkpt>
      <trkpt lat="51.21997370408" lon="4.48040718184">
        <ele>2.4</ele>
        <time>2020-06-22T19:56:16Z</time>
      </trkpt>
      <trkpt lat="51.220464380506" lon="4.48004759833">
        <ele>0</ele>
        <time>2020-06-22T19:56:34Z</time>
      </trkpt>
      <trkpt lat="51.220318619265" lon="4.479202870448">
        <ele>0</ele>
        <time>2020-06-22T19:56:52Z</time>
      </trkpt>
      <trkpt lat="51.220156094224" lon="4.478352107598">
        <ele>0</ele>
        <time>2020-06-22T19:57:12Z</time>
      </trkpt>
      <trkpt lat="51.219983007989" lon="4.477496567065">
        <ele>0</ele>
        <time>2020-06-22T19:57:31Z</time>
      </trkpt>
      <trkpt lat="51.219924669965" lon="4.476914779386">
        <ele>0</ele>
        <time>2020-06-22T19:57:51Z</time>
      </trkpt>
      <trkpt lat="51.220400510428" lon="4.476497109309">
        <ele>0</ele>
        <time>2020-06-22T19:58:12Z</time>
      </trkpt>
      <trkpt lat="51.22048667636" lon="4.476315389717">
        <ele>0</ele>
        <time>2020-06-22T19:58:18Z</time>
      </trkpt>
      <trkpt lat="51.220770152218" lon="4.475586080598">
        <ele>0</ele>
        <time>2020-06-22T19:58:40Z</time>
      </trkpt>
      <trkpt lat="51.220931922888" lon="4.474823076241">
        <ele>0</ele>
        <time>2020-06-22T19:59:00Z</time>
      </trkpt>
      <trkpt lat="51.221409942645" lon="4.475271340253">
        <ele>5</ele>
        <time>2020-06-22T19:59:21Z</time>
      </trkpt>
      <trkpt lat="51.221861894693" lon="4.475445516135">
        <ele>3.8</ele>
        <time>2020-06-22T19:59:39Z</time>
      </trkpt>
      <trkpt lat="51.222169594242" lon="4.474739257241">
        <ele>0.8</ele>
        <time>2020-06-22T19:59:56Z</time>
      </trkpt>
      <trkpt lat="51.222575613478" lon="4.474149925852">
        <ele>0</ele>
        <time>2020-06-22T20:00:19Z</time>
      </trkpt>
      <trkpt lat="51.222889431814" lon="4.473792689274">
        <ele>0</ele>
        <time>2020-06-22T20:00:33Z</time>
      </trkpt>
      <trkpt lat="51.223251697532" lon="4.474443795266">
        <ele>0.8</ele>
        <time>2020-06-22T20:00:51Z</time>
      </trkpt>
      <trkpt lat="51.22361563963" lon="4.475081993132">
        <ele>3.2</ele>
        <time>2020-06-22T20:01:12Z</time>
      </trkpt>
      <trkpt lat="51.223638103122" lon="4.475126165745">
        <ele>3.4</ele>
        <time>2020-06-22T20:01:18Z</time>
      </trkpt>
      <trkpt lat="51.223956280046" lon="4.475294977211">
        <ele>0.4</ele>
        <time>2020-06-22T20:01:36Z</time>
      </trkpt>
      <trkpt lat="51.224343691464" lon="4.474720565604">
        <ele>0</ele>
        <time>2020-06-22T20:01:55Z</time>
      </trkpt>
      <trkpt lat="51.224776868056" lon="4.474211951912">
        <ele>0.8</ele>
        <time>2020-06-22T20:02:12Z</time>
      </trkpt>
      <trkpt lat="51.225246254456" lon="4.473692190293">
        <ele>3</ele>
        <time>2020-06-22T20:02:29Z</time>
      </trkpt>
      <trkpt lat="51.225699547608" lon="4.473199502211">
        <ele>2.2</ele>
        <time>2020-06-22T20:02:44Z</time>
      </trkpt>
      <trkpt lat="51.226178154098" lon="4.472758027538">
        <ele>0</ele>
        <time>2020-06-22T20:03:04Z</time>
      </trkpt>
      <trkpt lat="51.226602529695" lon="4.472210940925">
        <ele>4.8</ele>
        <time>2020-06-22T20:03:23Z</time>
      </trkpt>
      <trkpt lat="51.227053559734" lon="4.471726802381">
        <ele>7.2</ele>
        <time>2020-06-22T20:03:41Z</time>
      </trkpt>
      <trkpt lat="51.227518755184" lon="4.471281472034">
        <ele>4.4</ele>
        <time>2020-06-22T20:03:58Z</time>
      </trkpt>
      <trkpt lat="51.227968779395" lon="4.470782832803">
        <ele>0.2</ele>
        <time>2020-06-22T20:04:17Z</time>
      </trkpt>
      <trkpt lat="51.228408493869" lon="4.470283942115">
        <ele>0.8</ele>
        <time>2020-06-22T20:04:34Z</time>
      </trkpt>
      <trkpt lat="51.228470687567" lon="4.470313278765">
        <ele>0</ele>
        <time>2020-06-22T20:04:35Z</time>
      </trkpt>
      <trkpt lat="51.228515949827" lon="4.470341861044">
        <ele>0</ele>
        <time>2020-06-22T20:04:38Z</time>
      </trkpt>
      <trkpt lat="51.22869423284" lon="4.470287881608">
        <ele>0</ele>
        <time>2020-06-22T20:04:52Z</time>
      </trkpt>
      <trkpt lat="51.228729269182" lon="4.470334317334">
        <ele>0</ele>
        <time>2020-06-22T20:04:55Z</time>
      </trkpt>
      <trkpt lat="51.228765898085" lon="4.47032124157">
        <ele>0</ele>
        <time>2020-06-22T20:04:58Z</time>
      </trkpt>
      <trkpt lat="51.229269650275" lon="4.470176905252">
        <ele>1.8</ele>
        <time>2020-06-22T20:05:21Z</time>
      </trkpt>
      <trkpt lat="51.229819670553" lon="4.470019074075">
        <ele>3</ele>
        <time>2020-06-22T20:05:40Z</time>
      </trkpt>
      <trkpt lat="51.230332642833" lon="4.469676338184">
        <ele>0</ele>
        <time>2020-06-22T20:06:01Z</time>
      </trkpt>
      <trkpt lat="51.230849554606" lon="4.469316335579">
        <ele>0</ele>
        <time>2020-06-22T20:06:25Z</time>
      </trkpt>
      <trkpt lat="51.23129346003" lon="4.468821971117">
        <ele>0.8</ele>
        <time>2020-06-22T20:06:48Z</time>
      </trkpt>
      <trkpt lat="51.231632424066" lon="4.468115376947">
        <ele>1.2</ele>
        <time>2020-06-22T20:07:09Z</time>
      </trkpt>
      <trkpt lat="51.231995695612" lon="4.467507270102">
        <ele>2</ele>
        <time>2020-06-22T20:07:33Z</time>
      </trkpt>
      <trkpt lat="51.232142714138" lon="4.467288251055">
        <ele>1.6</ele>
        <time>2020-06-22T20:07:45Z</time>
      </trkpt>
      <trkpt lat="51.232100301724" lon="4.467126648023">
        <ele>0.2</ele>
        <time>2020-06-22T20:07:51Z</time>
      </trkpt>
      <trkpt lat="51.231574337499" lon="4.467172916111">
        <ele>0</ele>
        <time>2020-06-22T20:08:13Z</time>
      </trkpt>
      <trkpt lat="51.231169072634" lon="4.467132934448">
        <ele>0</ele>
        <time>2020-06-22T20:08:26Z</time>
      </trkpt>
      <trkpt lat="51.231162870028" lon="4.467051713837">
        <ele>0</ele>
        <time>2020-06-22T20:08:28Z</time>
      </trkpt>
      <trkpt lat="51.231514071638" lon="4.466395578705">
        <ele>0</ele>
        <time>2020-06-22T20:08:45Z</time>
      </trkpt>
      <trkpt lat="51.231835601322" lon="4.465680434997">
        <ele>0</ele>
        <time>2020-06-22T20:09:04Z</time>
      </trkpt>
      <trkpt lat="51.232156125178" lon="4.464975517207">
        <ele>1.2</ele>
        <time>2020-06-22T20:09:25Z</time>
      </trkpt>
      <trkpt lat="51.232406492531" lon="4.464179571983">
        <ele>0.4</ele>
        <time>2020-06-22T20:09:46Z</time>
      </trkpt>
      <trkpt lat="51.232420490304" lon="4.463320259595">
        <ele>0.2</ele>
        <time>2020-06-22T20:10:06Z</time>
      </trkpt>
      <trkpt lat="51.23228420061" lon="4.462468407098">
        <ele>0</ele>
        <time>2020-06-22T20:10:28Z</time>
      </trkpt>
      <trkpt lat="51.232186467656" lon="4.461716885944">
        <ele>0</ele>
        <time>2020-06-22T20:10:48Z</time>
      </trkpt>
      <trkpt lat="51.23206040388" lon="4.461073407481">
        <ele>0</ele>
        <time>2020-06-22T20:11:10Z</time>
      </trkpt>
      <trkpt lat="51.232034252352" lon="4.461044909021">
        <ele>0</ele>
        <time>2020-06-22T20:11:12Z</time>
      </trkpt>
      <trkpt lat="51.231901483056" lon="4.460209149772">
        <ele>0</ele>
        <time>2020-06-22T20:11:36Z</time>
      </trkpt>
      <trkpt lat="51.231753961616" lon="4.459360566216">
        <ele>0</ele>
        <time>2020-06-22T20:11:58Z</time>
      </trkpt>
      <trkpt lat="51.231595543706" lon="4.458539810568">
        <ele>0</ele>
        <time>2020-06-22T20:12:16Z</time>
      </trkpt>
      <trkpt lat="51.231526141574" lon="4.458269326655">
        <ele>0</ele>
        <time>2020-06-22T20:12:32Z</time>
      </trkpt>
      <trkpt lat="51.231299578817" lon="4.458410310213">
        <ele>0</ele>
        <time>2020-06-22T20:12:42Z</time>
      </trkpt>
      <trkpt lat="51.231260519163" lon="4.458403939969">
        <ele>0</ele>
        <time>2020-06-22T20:12:44Z</time>
      </trkpt>
      <trkpt lat="51.231244677372" lon="4.458203947835">
        <ele>0</ele>
        <time>2020-06-22T20:13:11Z</time>
      </trkpt>
      <trkpt lat="51.231234870549" lon="4.458096910972">
        <ele>0</ele>
        <time>2020-06-22T20:13:19Z</time>
      </trkpt>
      <trkpt lat="51.231197738732" lon="4.457806478137">
        <ele>0</ele>
        <time>2020-06-22T20:13:30Z</time>
      </trkpt>
      <trkpt lat="51.231190530298" lon="4.457710589201">
        <ele>0</ele>
        <time>2020-06-22T20:13:45Z</time>
      </trkpt>
      <trkpt lat="51.23121634655" lon="4.45739718996">
        <ele>0</ele>
        <time>2020-06-22T20:13:57Z</time>
      </trkpt>
      <trkpt lat="51.231275438945" lon="4.456537709934">
        <ele>0</ele>
        <time>2020-06-22T20:14:17Z</time>
      </trkpt>
      <trkpt lat="51.231454141053" lon="4.45613068487">
        <ele>0</ele>
        <time>2020-06-22T20:14:36Z</time>
      </trkpt>
      <trkpt lat="51.231304188862" lon="4.455890711073">
        <ele>0</ele>
        <time>2020-06-22T20:14:44Z</time>
      </trkpt>
      <trkpt lat="51.231228332667" lon="4.455019580206">
        <ele>0</ele>
        <time>2020-06-22T20:15:03Z</time>
      </trkpt>
      <trkpt lat="51.231102268891" lon="4.454178372722">
        <ele>1.2</ele>
        <time>2020-06-22T20:15:24Z</time>
      </trkpt>
      <trkpt lat="51.230941587868" lon="4.453337919609">
        <ele>0</ele>
        <time>2020-06-22T20:15:47Z</time>
      </trkpt>
      <trkpt lat="51.230795994265" lon="4.452484055456">
        <ele>0</ele>
        <time>2020-06-22T20:16:10Z</time>
      </trkpt>
      <trkpt lat="51.230680240226" lon="4.451638908479">
        <ele>0</ele>
        <time>2020-06-22T20:16:31Z</time>
      </trkpt>
      <trkpt lat="51.230496676616" lon="4.450822259962">
        <ele>2.2</ele>
        <time>2020-06-22T20:16:50Z</time>
      </trkpt>
      <trkpt lat="51.229700731392" lon="4.450888225515">
        <ele>0</ele>
        <time>2020-06-22T20:17:21Z</time>
      </trkpt>
      <trkpt lat="51.229548599907" lon="4.450044503461">
        <ele>0</ele>
        <time>2020-06-22T20:17:39Z</time>
      </trkpt>
      <trkpt lat="51.22944692746" lon="4.449195165534">
        <ele>0</ele>
        <time>2020-06-22T20:17:56Z</time>
      </trkpt>
      <trkpt lat="51.229134701685" lon="4.448463258026">
        <ele>3</ele>
        <time>2020-06-22T20:18:14Z</time>
      </trkpt>
      <trkpt lat="51.229084494104" lon="4.448440962172">
        <ele>3.4</ele>
        <time>2020-06-22T20:18:15Z</time>
      </trkpt>
      <trkpt lat="51.228973685386" lon="4.448466359329">
        <ele>2.4</ele>
        <time>2020-06-22T20:18:21Z</time>
      </trkpt>
      <trkpt lat="51.228846364325" lon="4.448607678163">
        <ele>2.8</ele>
        <time>2020-06-22T20:18:27Z</time>
      </trkpt>
      <trkpt lat="51.228878802278" lon="4.448681857978">
        <ele>6.6</ele>
        <time>2020-06-22T20:19:31Z</time>
      </trkpt>
      <trkpt lat="51.228864469229" lon="4.44872779079">
        <ele>5.8</ele>
        <time>2020-06-22T20:19:37Z</time>
      </trkpt>
      <trkpt lat="51.228552494911" lon="4.449287869348">
        <ele>0</ele>
        <time>2020-06-22T20:19:56Z</time>
      </trkpt>
    </trkseg>
  </trk>
</gpx>